KHIB/HIB METAR and TAF weather

Enter ICAO airport designator
Station Type Date Time Source
KHIB METAR 2019/10/15 07:53 UTC NOAA

KHIB 150753Z AUTO 00000KT 10SM OVC037 03/01 A2989 RMK AO2 SLP135 T00280011


Station Type Date Time Source
KHIB Decoded METAR 2019/10/15 07:53 UTC NOAA

CHISHOLM-HIBBING AIRPORT, MN, United States (KHIB) 47-23N 92-50W 412M
Oct 15, 2019 - 03:53 AM EDT / 2019.10.15 0753 UTC
Wind: Calm:0
Visibility: 10 mile(s):0
Sky conditions: overcast
Temperature: 37.0 F (2.8 C)
Dew Point: 34.0 F (1.1 C)
Relative Humidity: 88%
Pressure (altimeter): 29.89 in. Hg (1012 hPa)
ob: KHIB 150753Z AUTO 00000KT 10SM OVC037 03/01 A2989 RMK AO2 SLP135 T00280011
cycle: 8

Station Type Date Time Source
KHIB TAF 2019/10/15 06:27 UTC NOAA

TAF KHIB 150524Z 1506/1606 00000KT P6SM BKN040
FM151100 VRB03KT 6SM BR VCSH BKN035
FM151300 05004KT 5SM -SHRASN BR BKN020
FM151700 03006KT 3SM -SHRA BR OVC008
FM152200 34010KT P6SM VCSH OVC012
FM160100 34008KT P6SM BKN012

Example: see airport list